sensor_id;sensor_type;location;lat;lon;timestamp;pressure;altitude;pressure_sealevel;temperature;humidity
16793;BME280;8513;42.662;23.350;2023-11-19T00:01:26;94846.19;;;3.67;59.72
16793;BME280;8513;42.662;23.350;2023-11-19T00:03:52;94850.00;;;3.50;60.71
16793;BME280;8513;42.662;23.350;2023-11-19T00:06:18;94847.16;;;3.42;60.76
16793;BME280;8513;42.662;23.350;2023-11-19T00:08:44;94855.84;;;3.53;60.28
16793;BME280;8513;42.662;23.350;2023-11-19T00:11:09;94855.28;;;3.61;59.87
16793;BME280;8513;42.662;23.350;2023-11-19T00:13:35;94847.41;;;3.50;60.07
16793;BME280;8513;42.662;23.350;2023-11-19T00:16:00;94856.16;;;3.49;60.63
16793;BME280;8513;42.662;23.350;2023-11-19T00:18:25;94836.56;;;3.45;60.29
16793;BME280;8513;42.662;23.350;2023-11-19T00:20:51;94849.13;;;3.62;60.10
16793;BME280;8513;42.662;23.350;2023-11-19T00:23:16;94849.44;;;3.58;60.25
16793;BME280;8513;42.662;23.350;2023-11-19T00:25:42;94840.34;;;3.52;60.19
16793;BME280;8513;42.662;23.350;2023-11-19T00:28:07;94846.25;;;3.54;60.18
16793;BME280;8513;42.662;23.350;2023-11-19T00:30:33;94845.44;;;3.53;59.80
16793;BME280;8513;42.662;23.350;2023-11-19T00:32:58;94842.69;;;3.44;60.18
16793;BME280;8513;42.662;23.350;2023-11-19T00:35:24;94843.56;;;3.56;59.86
16793;BME280;8513;42.662;23.350;2023-11-19T00:37:49;94847.38;;;3.39;60.34
16793;BME280;8513;42.662;23.350;2023-11-19T00:40:15;94855.34;;;3.48;60.16
16793;BME280;8513;42.662;23.350;2023-11-19T00:42:42;94850.16;;;3.48;60.17
16793;BME280;8513;42.662;23.350;2023-11-19T00:45:08;94848.59;;;3.46;59.85
16793;BME280;8513;42.662;23.350;2023-11-19T00:47:35;94871.50;;;3.41;60.05
16793;BME280;8513;42.662;23.350;2023-11-19T00:50:02;94862.84;;;3.29;60.52
16793;BME280;8513;42.662;23.350;2023-11-19T00:52:27;94871.22;;;3.33;60.56
16793;BME280;8513;42.662;23.350;2023-11-19T00:57:36;94853.00;;;3.21;60.92
16793;BME280;8513;42.662;23.350;2023-11-19T01:00:02;94864.84;;;3.37;60.48
16793;BME280;8513;42.662;23.350;2023-11-19T01:02:34;94862.84;;;3.29;61.24
16793;BME280;8513;42.662;23.350;2023-11-19T01:05:00;94858.06;;;3.23;61.15
16793;BME280;8513;42.662;23.350;2023-11-19T01:07:25;94866.41;;;3.39;60.75
16793;BME280;8513;42.662;23.350;2023-11-19T01:09:52;94867.34;;;3.38;60.92
16793;BME280;8513;42.662;23.350;2023-11-19T01:12:17;94864.91;;;3.48;60.52
16793;BME280;8513;42.662;23.350;2023-11-19T01:14:42;94882.72;;;3.41;60.52
16793;BME280;8513;42.662;23.350;2023-11-19T01:17:08;94886.75;;;3.45;60.30
16793;BME280;8513;42.662;23.350;2023-11-19T01:19:34;94863.69;;;3.41;60.42
16793;BME280;8513;42.662;23.350;2023-11-19T01:21:59;94857.50;;;3.30;61.03
16793;BME280;8513;42.662;23.350;2023-11-19T01:24:25;94844.19;;;3.35;61.10
16793;BME280;8513;42.662;23.350;2023-11-19T01:26:53;94853.63;;;3.36;60.63
16793;BME280;8513;42.662;23.350;2023-11-19T01:29:19;94857.78;;;3.39;60.68
16793;BME280;8513;42.662;23.350;2023-11-19T01:31:45;94861.00;;;3.42;60.49
16793;BME280;8513;42.662;23.350;2023-11-19T01:34:12;94860.28;;;3.40;60.64
16793;BME280;8513;42.662;23.350;2023-11-19T01:36:37;94868.69;;;3.20;60.83
16793;BME280;8513;42.662;23.350;2023-11-19T01:39:03;94885.31;;;3.41;60.42
16793;BME280;8513;42.662;23.350;2023-11-19T01:41:34;94869.41;;;3.22;60.97
16793;BME280;8513;42.662;23.350;2023-11-19T01:43:59;94870.34;;;3.21;60.69
16793;BME280;8513;42.662;23.350;2023-11-19T01:46:25;94868.50;;;3.34;60.24
16793;BME280;8513;42.662;23.350;2023-11-19T01:48:52;94867.56;;;3.35;60.10
16793;BME280;8513;42.662;23.350;2023-11-19T01:51:17;94881.88;;;3.41;59.75
16793;BME280;8513;42.662;23.350;2023-11-19T01:53:43;94890.47;;;3.30;59.16
16793;BME280;8513;42.662;23.350;2023-11-19T01:56:12;94896.94;;;3.24;59.35
16793;BME280;8513;42.662;23.350;2023-11-19T01:58:39;94889.59;;;3.18;59.61
16793;BME280;8513;42.662;23.350;2023-11-19T02:01:06;94881.72;;;3.07;59.69
16793;BME280;8513;42.662;23.350;2023-11-19T02:03:33;94886.50;;;3.13;59.62
16793;BME280;8513;42.662;23.350;2023-11-19T02:06:02;94887.19;;;3.15;59.48
16793;BME280;8513;42.662;23.350;2023-11-19T02:08:29;94884.50;;;3.17;59.75
16793;BME280;8513;42.662;23.350;2023-11-19T02:10:54;94875.75;;;3.18;59.50
16793;BME280;8513;42.662;23.350;2023-11-19T02:13:24;94871.69;;;3.26;59.05
16793;BME280;8513;42.662;23.350;2023-11-19T02:15:50;94887.47;;;3.47;58.66
16793;BME280;8513;42.662;23.350;2023-11-19T02:18:20;94880.63;;;3.46;58.03
16793;BME280;8513;42.662;23.350;2023-11-19T02:20:48;94878.97;;;3.45;57.78
16793;BME280;8513;42.662;23.350;2023-11-19T02:23:14;94880.88;;;3.54;57.85
16793;BME280;8513;42.662;23.350;2023-11-19T02:25:40;94878.69;;;3.37;58.14
16793;BME280;8513;42.662;23.350;2023-11-19T02:28:06;94874.94;;;3.17;58.89
16793;BME280;8513;42.662;23.350;2023-11-19T02:30:31;94870.81;;;3.26;58.51
16793;BME280;8513;42.662;23.350;2023-11-19T02:32:58;94894.38;;;3.36;58.70
16793;BME280;8513;42.662;23.350;2023-11-19T02:35:26;94878.47;;;3.40;58.16
16793;BME280;8513;42.662;23.350;2023-11-19T02:37:52;94877.69;;;3.51;57.75
16793;BME280;8513;42.662;23.350;2023-11-19T02:40:17;94864.44;;;3.19;58.59
16793;BME280;8513;42.662;23.350;2023-11-19T02:42:43;94872.00;;;3.22;58.99
16793;BME280;8513;42.662;23.350;2023-11-19T02:45:09;94875.69;;;3.06;59.24
16793;BME280;8513;42.662;23.350;2023-11-19T02:47:43;94870.91;;;3.13;59.21
16793;BME280;8513;42.662;23.350;2023-11-19T02:50:11;94881.56;;;2.97;59.48
16793;BME280;8513;42.662;23.350;2023-11-19T02:52:46;94883.94;;;3.00;59.57
16793;BME280;8513;42.662;23.350;2023-11-19T02:55:12;94883.22;;;2.98;59.81
16793;BME280;8513;42.662;23.350;2023-11-19T02:57:40;94864.25;;;2.85;59.54
16793;BME280;8513;42.662;23.350;2023-11-19T03:00:17;94861.75;;;2.83;59.94
16793;BME280;8513;42.662;23.350;2023-11-19T03:02:46;94852.63;;;2.78;59.77
16793;BME280;8513;42.662;23.350;2023-11-19T03:05:13;94863.59;;;2.94;59.64
16793;BME280;8513;42.662;23.350;2023-11-19T03:07:41;94855.03;;;2.81;59.83
16793;BME280;8513;42.662;23.350;2023-11-19T03:10:08;94863.94;;;2.77;59.64
16793;BME280;8513;42.662;23.350;2023-11-19T03:12:34;94860.81;;;2.84;59.96
16793;BME280;8513;42.662;23.350;2023-11-19T03:14:59;94862.09;;;2.79;59.88
16793;BME280;8513;42.662;23.350;2023-11-19T03:17:25;94871.34;;;2.70;59.96
16793;BME280;8513;42.662;23.350;2023-11-19T03:19:50;94873.28;;;2.79;59.72
16793;BME280;8513;42.662;23.350;2023-11-19T03:22:15;94871.94;;;2.86;59.69
16793;BME280;8513;42.662;23.350;2023-11-19T03:24:41;94866.78;;;2.74;60.14
16793;BME280;8513;42.662;23.350;2023-11-19T03:27:06;94868.56;;;2.60;60.66
16793;BME280;8513;42.662;23.350;2023-11-19T03:29:32;94864.81;;;2.64;60.66
16793;BME280;8513;42.662;23.350;2023-11-19T03:31:57;94862.19;;;2.64;60.40
16793;BME280;8513;42.662;23.350;2023-11-19T03:34:22;94875.59;;;2.71;60.76
16793;BME280;8513;42.662;23.350;2023-11-19T03:36:48;94868.03;;;2.68;60.61
16793;BME280;8513;42.662;23.350;2023-11-19T03:39:14;94870.72;;;2.67;60.46
16793;BME280;8513;42.662;23.350;2023-11-19T03:41:39;94877.44;;;2.82;60.04
16793;BME280;8513;42.662;23.350;2023-11-19T03:44:05;94870.22;;;2.98;59.81
16793;BME280;8513;42.662;23.350;2023-11-19T03:46:30;94878.22;;;2.95;59.51
16793;BME280;8513;42.662;23.350;2023-11-19T03:48:56;94897.03;;;2.99;59.35
16793;BME280;8513;42.662;23.350;2023-11-19T03:51:21;94895.59;;;2.95;59.39
16793;BME280;8513;42.662;23.350;2023-11-19T03:53:47;94907.06;;;2.79;60.26
16793;BME280;8513;42.662;23.350;2023-11-19T03:56:12;94899.75;;;2.97;59.76
16793;BME280;8513;42.662;23.350;2023-11-19T03:58:39;94896.50;;;2.94;59.92
16793;BME280;8513;42.662;23.350;2023-11-19T04:01:05;94894.31;;;3.00;59.56
16793;BME280;8513;42.662;23.350;2023-11-19T04:03:30;94897.84;;;2.99;59.53
16793;BME280;8513;42.662;23.350;2023-11-19T04:05:56;94904.50;;;3.03;59.78
16793;BME280;8513;42.662;23.350;2023-11-19T04:08:22;94903.47;;;2.93;59.77
16793;BME280;8513;42.662;23.350;2023-11-19T04:10:47;94909.56;;;2.81;60.02
16793;BME280;8513;42.662;23.350;2023-11-19T04:13:13;94915.78;;;2.78;60.02
16793;BME280;8513;42.662;23.350;2023-11-19T04:15:38;94928.66;;;2.80;60.47
16793;BME280;8513;42.662;23.350;2023-11-19T04:18:04;94910.75;;;2.88;60.31
16793;BME280;8513;42.662;23.350;2023-11-19T04:20:29;94909.69;;;3.03;59.35
16793;BME280;8513;42.662;23.350;2023-11-19T04:22:55;94901.56;;;3.08;59.38
16793;BME280;8513;42.662;23.350;2023-11-19T04:25:21;94910.06;;;3.10;59.43
16793;BME280;8513;42.662;23.350;2023-11-19T04:27:46;94899.69;;;3.10;59.51
16793;BME280;8513;42.662;23.350;2023-11-19T04:30:13;94896.88;;;3.13;59.34
16793;BME280;8513;42.662;23.350;2023-11-19T04:32:39;94916.63;;;3.16;59.33
16793;BME280;8513;42.662;23.350;2023-11-19T04:35:04;94919.03;;;3.06;59.19
16793;BME280;8513;42.662;23.350;2023-11-19T04:37:31;94926.59;;;3.09;58.91
16793;BME280;8513;42.662;23.350;2023-11-19T04:39:57;94939.09;;;2.91;59.24
16793;BME280;8513;42.662;23.350;2023-11-19T04:42:22;94923.00;;;2.99;58.98
16793;BME280;8513;42.662;23.350;2023-11-19T04:44:48;94932.84;;;3.06;59.05
16793;BME280;8513;42.662;23.350;2023-11-19T04:47:13;94926.72;;;3.07;58.82
16793;BME280;8513;42.662;23.350;2023-11-19T04:49:42;94929.31;;;3.07;58.96
16793;BME280;8513;42.662;23.350;2023-11-19T04:52:08;94945.84;;;3.06;58.63
16793;BME280;8513;42.662;23.350;2023-11-19T04:54:34;94919.63;;;3.09;58.49
16793;BME280;8513;42.662;23.350;2023-11-19T04:56:59;94940.75;;;3.05;58.66
16793;BME280;8513;42.662;23.350;2023-11-19T04:59:25;94929.09;;;3.11;58.53
16793;BME280;8513;42.662;23.350;2023-11-19T05:01:50;94940.66;;;2.94;58.51
16793;BME280;8513;42.662;23.350;2023-11-19T05:04:16;94949.59;;;3.02;59.20
16793;BME280;8513;42.662;23.350;2023-11-19T05:06:41;94952.50;;;2.98;58.66
16793;BME280;8513;42.662;23.350;2023-11-19T05:09:07;94959.59;;;2.83;58.63
16793;BME280;8513;42.662;23.350;2023-11-19T05:11:33;94982.06;;;2.71;59.12
16793;BME280;8513;42.662;23.350;2023-11-19T05:13:59;94970.63;;;2.86;59.03
16793;BME280;8513;42.662;23.350;2023-11-19T05:16:25;94971.34;;;2.76;59.27
16793;BME280;8513;42.662;23.350;2023-11-19T05:18:50;94973.97;;;2.76;58.74
16793;BME280;8513;42.662;23.350;2023-11-19T05:21:16;94972.47;;;2.97;58.37
16793;BME280;8513;42.662;23.350;2023-11-19T05:23:42;94963.13;;;2.95;58.18
16793;BME280;8513;42.662;23.350;2023-11-19T05:26:08;94984.00;;;2.93;58.92
16793;BME280;8513;42.662;23.350;2023-11-19T05:28:37;94968.03;;;2.86;58.34
16793;BME280;8513;42.662;23.350;2023-11-19T05:31:02;94965.19;;;3.02;58.26
16793;BME280;8513;42.662;23.350;2023-11-19T05:33:28;94961.66;;;2.91;58.96
16793;BME280;8513;42.662;23.350;2023-11-19T05:35:53;94971.44;;;2.87;58.97
16793;BME280;8513;42.662;23.350;2023-11-19T05:38:19;94972.84;;;3.04;58.34
16793;BME280;8513;42.662;23.350;2023-11-19T05:40:46;94974.94;;;2.99;57.92
16793;BME280;8513;42.662;23.350;2023-11-19T05:43:13;94978.50;;;2.98;58.49
16793;BME280;8513;42.662;23.350;2023-11-19T05:45:40;94977.13;;;3.05;58.23
16793;BME280;8513;42.662;23.350;2023-11-19T05:48:05;94979.53;;;2.95;58.26
16793;BME280;8513;42.662;23.350;2023-11-19T05:50:31;95005.72;;;2.79;58.63
16793;BME280;8513;42.662;23.350;2023-11-19T05:52:56;94968.53;;;2.79;58.89
16793;BME280;8513;42.662;23.350;2023-11-19T05:55:21;94960.31;;;2.85;58.71
16793;BME280;8513;42.662;23.350;2023-11-19T05:57:48;94973.28;;;2.98;58.36
16793;BME280;8513;42.662;23.350;2023-11-19T06:00:14;94969.06;;;2.84;58.80
16793;BME280;8513;42.662;23.350;2023-11-19T06:02:40;94976.84;;;2.71;59.21
16793;BME280;8513;42.662;23.350;2023-11-19T06:05:06;94971.34;;;2.76;59.44
16793;BME280;8513;42.662;23.350;2023-11-19T06:07:35;94980.66;;;2.91;58.67
16793;BME280;8513;42.662;23.350;2023-11-19T06:10:02;94993.13;;;2.86;58.79
16793;BME280;8513;42.662;23.350;2023-11-19T06:12:28;95000.00;;;3.00;58.58
16793;BME280;8513;42.662;23.350;2023-11-19T06:14:53;94998.31;;;2.99;58.75
16793;BME280;8513;42.662;23.350;2023-11-19T06:17:19;94989.50;;;2.88;58.88
16793;BME280;8513;42.662;23.350;2023-11-19T06:19:44;94983.47;;;2.88;58.61
16793;BME280;8513;42.662;23.350;2023-11-19T06:22:10;94992.09;;;2.88;58.59
16793;BME280;8513;42.662;23.350;2023-11-19T06:24:36;94976.34;;;2.79;58.83
16793;BME280;8513;42.662;23.350;2023-11-19T06:27:02;94972.91;;;2.78;59.23
16793;BME280;8513;42.662;23.350;2023-11-19T06:29:28;95003.75;;;2.70;59.27
16793;BME280;8513;42.662;23.350;2023-11-19T06:31:53;95011.56;;;2.70;59.22
16793;BME280;8513;42.662;23.350;2023-11-19T06:34:19;94998.25;;;2.75;59.25
16793;BME280;8513;42.662;23.350;2023-11-19T06:36:44;94984.94;;;2.79;58.81
16793;BME280;8513;42.662;23.350;2023-11-19T06:39:10;94991.41;;;2.74;58.94
16793;BME280;8513;42.662;23.350;2023-11-19T06:41:38;95021.94;;;2.70;59.02
16793;BME280;8513;42.662;23.350;2023-11-19T06:44:04;94999.91;;;2.63;59.52
16793;BME280;8513;42.662;23.350;2023-11-19T06:46:30;94998.84;;;2.91;58.86
16793;BME280;8513;42.662;23.350;2023-11-19T06:48:56;95003.34;;;2.76;58.60
16793;BME280;8513;42.662;23.350;2023-11-19T06:51:22;95007.38;;;2.80;58.18
16793;BME280;8513;42.662;23.350;2023-11-19T06:53:47;94986.72;;;2.92;58.40
16793;BME280;8513;42.662;23.350;2023-11-19T06:56:23;94989.19;;;2.80;58.66
16793;BME280;8513;42.662;23.350;2023-11-19T06:58:50;95007.69;;;2.88;58.19
16793;BME280;8513;42.662;23.350;2023-11-19T07:01:17;95009.13;;;2.93;57.80
16793;BME280;8513;42.662;23.350;2023-11-19T07:03:47;95009.56;;;2.86;58.16
16793;BME280;8513;42.662;23.350;2023-11-19T07:06:13;95010.75;;;3.19;57.34
16793;BME280;8513;42.662;23.350;2023-11-19T07:08:41;94998.00;;;3.03;57.11
16793;BME280;8513;42.662;23.350;2023-11-19T07:11:07;95004.03;;;3.04;57.18
16793;BME280;8513;42.662;23.350;2023-11-19T07:13:35;95025.84;;;3.14;57.20
16793;BME280;8513;42.662;23.350;2023-11-19T07:16:00;95015.06;;;3.07;57.15
16793;BME280;8513;42.662;23.350;2023-11-19T07:18:26;95007.00;;;3.23;56.70
16793;BME280;8513;42.662;23.350;2023-11-19T07:20:51;95020.03;;;3.11;56.39
16793;BME280;8513;42.662;23.350;2023-11-19T07:23:17;95028.97;;;2.94;57.08
16793;BME280;8513;42.662;23.350;2023-11-19T07:25:43;95027.53;;;2.90;57.01
16793;BME280;8513;42.662;23.350;2023-11-19T07:28:12;95033.44;;;3.04;57.04
16793;BME280;8513;42.662;23.350;2023-11-19T07:30:38;95046.09;;;3.22;57.00
16793;BME280;8513;42.662;23.350;2023-11-19T07:33:04;95030.00;;;3.17;56.72
16793;BME280;8513;42.662;23.350;2023-11-19T07:35:29;95034.66;;;3.24;56.41
16793;BME280;8513;42.662;23.350;2023-11-19T07:37:57;95052.03;;;3.11;56.58
16793;BME280;8513;42.662;23.350;2023-11-19T07:40:23;95061.38;;;3.14;56.02
16793;BME280;8513;42.662;23.350;2023-11-19T07:42:49;95061.50;;;2.86;56.77
16793;BME280;8513;42.662;23.350;2023-11-19T07:45:15;95068.66;;;2.83;57.23
16793;BME280;8513;42.662;23.350;2023-11-19T07:47:40;95066.19;;;2.94;56.64
16793;BME280;8513;42.662;23.350;2023-11-19T07:50:06;95049.88;;;3.05;56.76
16793;BME280;8513;42.662;23.350;2023-11-19T07:52:31;95057.44;;;3.08;56.40
16793;BME280;8513;42.662;23.350;2023-11-19T07:54:57;95064.72;;;3.16;56.03
16793;BME280;8513;42.662;23.350;2023-11-19T07:57:22;95067.63;;;3.11;56.13
16793;BME280;8513;42.662;23.350;2023-11-19T07:59:49;95071.16;;;2.97;56.34
16793;BME280;8513;42.662;23.350;2023-11-19T08:02:15;95071.16;;;2.84;56.33
16793;BME280;8513;42.662;23.350;2023-11-19T08:04:40;95079.38;;;2.78;56.82
16793;BME280;8513;42.662;23.350;2023-11-19T08:07:10;95079.03;;;2.83;56.97
16793;BME280;8513;42.662;23.350;2023-11-19T08:09:36;95078.84;;;2.86;57.03
16793;BME280;8513;42.662;23.350;2023-11-19T08:12:03;95063.69;;;2.80;56.46
16793;BME280;8513;42.662;23.350;2023-11-19T08:14:28;95083.19;;;2.85;56.83
16793;BME280;8513;42.662;23.350;2023-11-19T08:16:54;95089.22;;;2.86;56.39
16793;BME280;8513;42.662;23.350;2023-11-19T08:19:19;95092.56;;;2.88;56.19
16793;BME280;8513;42.662;23.350;2023-11-19T08:21:45;95092.75;;;2.72;56.80
16793;BME280;8513;42.662;23.350;2023-11-19T08:24:10;95081.56;;;2.84;56.81
16793;BME280;8513;42.662;23.350;2023-11-19T08:26:35;95066.19;;;2.81;56.38
16793;BME280;8513;42.662;23.350;2023-11-19T08:29:01;95080.50;;;2.74;56.78
16793;BME280;8513;42.662;23.350;2023-11-19T08:31:26;95091.91;;;2.72;56.97
16793;BME280;8513;42.662;23.350;2023-11-19T08:33:52;95081.03;;;3.05;56.30
16793;BME280;8513;42.662;23.350;2023-11-19T08:36:17;95069.78;;;3.04;55.90
16793;BME280;8513;42.662;23.350;2023-11-19T08:38:43;95087.75;;;3.20;55.54
16793;BME280;8513;42.662;23.350;2023-11-19T08:41:08;95077.78;;;3.27;55.93
16793;BME280;8513;42.662;23.350;2023-11-19T08:43:34;95101.63;;;3.21;55.44
16793;BME280;8513;42.662;23.350;2023-11-19T08:45:59;95090.25;;;3.35;55.42
16793;BME280;8513;42.662;23.350;2023-11-19T08:48:24;95095.84;;;3.41;55.17
16793;BME280;8513;42.662;23.350;2023-11-19T08:50:51;95082.56;;;3.46;54.08
16793;BME280;8513;42.662;23.350;2023-11-19T08:53:16;95079.81;;;3.47;54.62
16793;BME280;8513;42.662;23.350;2023-11-19T08:55:41;95108.84;;;3.54;54.23
16793;BME280;8513;42.662;23.350;2023-11-19T08:58:07;95097.03;;;3.37;55.37
16793;BME280;8513;42.662;23.350;2023-11-19T09:00:32;95101.69;;;3.45;54.79
16793;BME280;8513;42.662;23.350;2023-11-19T09:02:58;95094.38;;;3.50;53.70
16793;BME280;8513;42.662;23.350;2023-11-19T09:05:24;95068.28;;;3.51;53.79
16793;BME280;8513;42.662;23.350;2023-11-19T09:07:49;95075.78;;;3.43;53.31
16793;BME280;8513;42.662;23.350;2023-11-19T09:10:15;95075.88;;;3.54;54.01
16793;BME280;8513;42.662;23.350;2023-11-19T09:12:41;95056.66;;;3.81;53.15
16793;BME280;8513;42.662;23.350;2023-11-19T09:15:06;95073.31;;;4.27;52.36
16793;BME280;8513;42.662;23.350;2023-11-19T09:17:32;95063.13;;;4.24;51.93
16793;BME280;8513;42.662;23.350;2023-11-19T09:19:57;95060.44;;;4.25;52.20
16793;BME280;8513;42.662;23.350;2023-11-19T09:22:23;95076.00;;;4.49;51.39
16793;BME280;8513;42.662;23.350;2023-11-19T09:24:48;95074.53;;;4.34;51.24
16793;BME280;8513;42.662;23.350;2023-11-19T09:27:14;95084.72;;;4.13;51.66
16793;BME280;8513;42.662;23.350;2023-11-19T09:29:39;95073.03;;;4.18;51.08
16793;BME280;8513;42.662;23.350;2023-11-19T09:32:05;95083.22;;;4.22;51.25
16793;BME280;8513;42.662;23.350;2023-11-19T09:34:31;95081.03;;;4.28;51.57
16793;BME280;8513;42.662;23.350;2023-11-19T09:36:57;95060.22;;;4.39;51.45
16793;BME280;8513;42.662;23.350;2023-11-19T09:39:22;95061.53;;;4.45;50.99
16793;BME280;8513;42.662;23.350;2023-11-19T09:41:48;95049.44;;;4.09;51.74
16793;BME280;8513;42.662;23.350;2023-11-19T09:44:14;95037.28;;;4.09;51.66
16793;BME280;8513;42.662;23.350;2023-11-19T09:46:43;95015.72;;;3.96;52.09
16793;BME280;8513;42.662;23.350;2023-11-19T09:49:10;95021.72;;;4.20;51.48
16793;BME280;8513;42.662;23.350;2023-11-19T09:51:36;95018.44;;;4.06;51.44
16793;BME280;8513;42.662;23.350;2023-11-19T09:54:02;95016.50;;;4.20;51.76
16793;BME280;8513;42.662;23.350;2023-11-19T09:56:30;95007.31;;;4.28;51.48
16793;BME280;8513;42.662;23.350;2023-11-19T09:58:56;94998.09;;;4.35;51.58
16793;BME280;8513;42.662;23.350;2023-11-19T10:01:22;95018.88;;;4.24;51.60
16793;BME280;8513;42.662;23.350;2023-11-19T10:03:47;95023.81;;;4.15;52.35
16793;BME280;8513;42.662;23.350;2023-11-19T10:06:14;95031.19;;;4.33;51.41
16793;BME280;8513;42.662;23.350;2023-11-19T10:08:41;95014.84;;;4.55;51.09
16793;BME280;8513;42.662;23.350;2023-11-19T10:11:07;95009.97;;;4.61;51.03
16793;BME280;8513;42.662;23.350;2023-11-19T10:13:36;95018.78;;;4.83;50.61
16793;BME280;8513;42.662;23.350;2023-11-19T10:16:10;95020.09;;;5.00;50.17
16793;BME280;8513;42.662;23.350;2023-11-19T10:18:37;95012.63;;;5.40;49.47
16793;BME280;8513;42.662;23.350;2023-11-19T10:21:06;95037.41;;;5.46;48.51
16793;BME280;8513;42.662;23.350;2023-11-19T10:23:50;95018.91;;;5.26;48.88
16793;BME280;8513;42.662;23.350;2023-11-19T10:26:17;95011.78;;;5.28;48.70
16793;BME280;8513;42.662;23.350;2023-11-19T10:28:43;95011.22;;;5.14;48.85
16793;BME280;8513;42.662;23.350;2023-11-19T10:31:14;94993.91;;;5.01;49.09
16793;BME280;8513;42.662;23.350;2023-11-19T10:33:39;94990.97;;;4.95;49.40
16793;BME280;8513;42.662;23.350;2023-11-19T10:36:05;94993.69;;;4.71;49.70
16793;BME280;8513;42.662;23.350;2023-11-19T10:38:31;94981.06;;;4.42;51.05
16793;BME280;8513;42.662;23.350;2023-11-19T10:40:56;94992.31;;;4.54;51.03
16793;BME280;8513;42.662;23.350;2023-11-19T10:43:23;94983.59;;;4.55;50.50
16793;BME280;8513;42.662;23.350;2023-11-19T10:45:49;94994.41;;;4.95;49.42
16793;BME280;8513;42.662;23.350;2023-11-19T10:48:14;94999.94;;;5.13;48.99
16793;BME280;8513;42.662;23.350;2023-11-19T10:50:41;94993.44;;;4.96;49.13
16793;BME280;8513;42.662;23.350;2023-11-19T10:53:09;95009.06;;;4.96;49.30
16793;BME280;8513;42.662;23.350;2023-11-19T10:55:37;94997.72;;;5.08;49.19
16793;BME280;8513;42.662;23.350;2023-11-19T10:58:09;94991.56;;;4.98;49.69
16793;BME280;8513;42.662;23.350;2023-11-19T11:00:45;94977.19;;;5.26;49.26
16793;BME280;8513;42.662;23.350;2023-11-19T11:03:17;94978.09;;;5.48;49.04
16793;BME280;8513;42.662;23.350;2023-11-19T11:05:47;94969.94;;;5.41;48.75
16793;BME280;8513;42.662;23.350;2023-11-19T11:08:13;94975.66;;;5.35;48.12
16793;BME280;8513;42.662;23.350;2023-11-19T11:10:54;94960.09;;;5.56;48.58
16793;BME280;8513;42.662;23.350;2023-11-19T11:13:22;94961.63;;;6.02;47.10
16793;BME280;8513;42.662;23.350;2023-11-19T11:15:49;94960.13;;;6.09;46.46
16793;BME280;8513;42.662;23.350;2023-11-19T11:18:16;94954.88;;;6.21;45.99
16793;BME280;8513;42.662;23.350;2023-11-19T11:20:44;94957.16;;;6.35;46.10
16793;BME280;8513;42.662;23.350;2023-11-19T11:28:58;94971.84;;;6.47;45.22
16793;BME280;8513;42.662;23.350;2023-11-19T11:36:43;94959.16;;;6.63;44.20
16793;BME280;8513;42.662;23.350;2023-11-19T11:39:12;94944.97;;;6.87;43.81
16793;BME280;8513;42.662;23.350;2023-11-19T11:41:38;94943.53;;;6.52;44.82
16793;BME280;8513;42.662;23.350;2023-11-19T11:44:04;94929.34;;;6.76;44.75
16793;BME280;8513;42.662;23.350;2023-11-19T11:49:08;94919.91;;;7.25;43.71
16793;BME280;8513;42.662;23.350;2023-11-19T11:54:11;94926.28;;;7.61;43.58
16793;BME280;8513;42.662;23.350;2023-11-19T11:57:03;94930.44;;;7.54;42.78
16793;BME280;8513;42.662;23.350;2023-11-19T12:02:08;94943.09;;;7.59;42.86
16793;BME280;8513;42.662;23.350;2023-11-19T12:04:35;94943.88;;;7.30;43.02
16793;BME280;8513;42.662;23.350;2023-11-19T12:09:31;94937.31;;;7.55;42.58
16793;BME280;8513;42.662;23.350;2023-11-19T12:12:25;94933.41;;;7.40;42.65
16793;BME280;8513;42.662;23.350;2023-11-19T12:15:06;94929.59;;;7.54;43.01
16793;BME280;8513;42.662;23.350;2023-11-19T12:20:00;94925.75;;;7.77;41.88
16793;BME280;8513;42.662;23.350;2023-11-19T12:22:26;94906.59;;;7.96;42.07
16793;BME280;8513;42.662;23.350;2023-11-19T12:24:54;94907.88;;;7.72;42.49
16793;BME280;8513;42.662;23.350;2023-11-19T12:27:20;94910.06;;;7.77;42.57
16793;BME280;8513;42.662;23.350;2023-11-19T12:29:48;94910.88;;;7.87;42.44
16793;BME280;8513;42.662;23.350;2023-11-19T12:32:13;94897.66;;;7.99;41.89
16793;BME280;8513;42.662;23.350;2023-11-19T12:34:39;94899.88;;;8.13;42.20
16793;BME280;8513;42.662;23.350;2023-11-19T12:37:05;94889.63;;;8.10;42.14
16793;BME280;8513;42.662;23.350;2023-11-19T12:39:30;94872.97;;;8.21;41.86
16793;BME280;8513;42.662;23.350;2023-11-19T12:41:56;94895.56;;;7.54;43.28
16793;BME280;8513;42.662;23.350;2023-11-19T12:44:24;94888.03;;;7.89;42.88
16793;BME280;8513;42.662;23.350;2023-11-19T12:47:03;94878.66;;;7.97;42.56
16793;BME280;8513;42.662;23.350;2023-11-19T12:49:29;94888.97;;;8.08;42.37
16793;BME280;8513;42.662;23.350;2023-11-19T12:51:54;94869.81;;;7.98;42.45
16793;BME280;8513;42.662;23.350;2023-11-19T12:54:20;94880.31;;;7.98;42.47
16793;BME280;8513;42.662;23.350;2023-11-19T12:56:52;94887.59;;;8.13;42.23
16793;BME280;8513;42.662;23.350;2023-11-19T12:59:19;94882.22;;;7.95;42.30
16793;BME280;8513;42.662;23.350;2023-11-19T13:02:14;94878.50;;;8.08;42.49
16793;BME280;8513;42.662;23.350;2023-11-19T13:04:39;94863.72;;;8.16;42.69
16793;BME280;8513;42.662;23.350;2023-11-19T13:07:05;94867.88;;;8.09;42.64
16793;BME280;8513;42.662;23.350;2023-11-19T13:09:31;94867.06;;;7.89;43.59
16793;BME280;8513;42.662;23.350;2023-11-19T13:11:56;94871.50;;;7.89;43.14
16793;BME280;8513;42.662;23.350;2023-11-19T13:14:23;94871.22;;;7.82;43.25
16793;BME280;8513;42.662;23.350;2023-11-19T13:16:49;94867.63;;;8.03;42.96
16793;BME280;8513;42.662;23.350;2023-11-19T13:19:15;94875.19;;;8.15;42.94
16793;BME280;8513;42.662;23.350;2023-11-19T13:21:45;94875.63;;;7.91;43.31
16793;BME280;8513;42.662;23.350;2023-11-19T13:24:13;94870.41;;;7.62;43.83
16793;BME280;8513;42.662;23.350;2023-11-19T13:26:39;94857.44;;;7.70;43.61
16793;BME280;8513;42.662;23.350;2023-11-19T13:29:05;94851.66;;;7.38;44.37
16793;BME280;8513;42.662;23.350;2023-11-19T13:31:30;94844.84;;;7.16;44.84
16793;BME280;8513;42.662;23.350;2023-11-19T13:33:56;94856.59;;;7.50;44.93